Time;durP1;ratioP1;P1;durP2;ratioP2;P2;SDS_P1;SDS_P2;PMS_P1;PMS_P2;Temp;Humidity;BMP_temperature;BMP_pressure;BME280_temperature;BME280_humidity;BME280_pressure;Samples;Min_cycle;Max_cycle;Signal;HPM_P1;HPM_P2
2023/05/05 00:00:28;;;;;;;9.23;6.78;;;14.50;82.80;;;;;;5094364;28;20089;-47
2023/05/05 00:03:14;;;;;;;9.27;6.60;;;14.40;83.10;;;;;;5092966;28;20028;-46
2023/05/05 00:06:00;;;;;;;10.43;6.65;;;14.30;83.40;;;;;;5061515;28;20485;-48
2023/05/05 00:08:46;;;;;;;11.23;7.07;;;14.10;83.70;;;;;;5075398;28;20028;-44
2023/05/05 00:11:32;;;;;;;9.45;6.38;;;14.10;83.90;;;;;;5055428;28;20571;-46
2023/05/05 00:14:18;;;;;;;10.77;6.72;;;14.10;84.10;;;;;;5053539;28;20025;-44
2023/05/05 00:17:04;;;;;;;10.32;7.07;;;14.10;84.40;;;;;;5054588;28;20551;-46
2023/05/05 00:19:50;;;;;;;9.68;6.75;;;14.00;84.50;;;;;;5088766;28;20036;-45
2023/05/05 00:22:36;;;;;;;10.30;7.07;;;14.00;85.80;;;;;;5092893;28;20107;-45
2023/05/05 00:25:22;;;;;;;10.90;7.13;;;14.00;86.50;;;;;;5094897;28;20186;-49
2023/05/05 00:28:08;;;;;;;9.93;7.45;;;14.00;86.20;;;;;;5092113;28;20031;-49
2023/05/05 00:30:54;;;;;;;8.85;6.50;;;14.00;87.00;;;;;;5063351;28;20519;-48
2023/05/05 00:33:40;;;;;;;9.32;7.25;;;14.10;87.70;;;;;;5070288;28;20412;-46
2023/05/05 00:36:27;;;;;;;12.40;7.07;;;14.20;87.30;;;;;;5073199;28;20032;-47
2023/05/05 00:39:13;;;;;;;7.85;6.95;;;14.10;87.10;;;;;;5074080;28;20119;-47
2023/05/05 00:41:59;;;;;;;8.38;7.13;;;14.20;87.30;;;;;;5053862;28;20041;-46
2023/05/05 00:44:45;;;;;;;10.75;7.30;;;14.10;86.80;;;;;;5052973;28;20036;-49
2023/05/05 00:47:31;;;;;;;9.18;7.20;;;14.10;86.60;;;;;;5053481;28;20581;-46
2023/05/05 00:50:23;;;;;;;10.10;6.45;;;14.00;86.70;;;;;;5054479;28;20079;-50
2023/05/05 00:53:09;;;;;;;10.70;8.02;;;13.90;87.00;;;;;;5053971;28;20517;-48
2023/05/05 00:55:55;;;;;;;9.60;7.75;;;13.80;86.90;;;;;;5069947;28;20039;-46
2023/05/05 00:58:42;;;;;;;11.30;7.45;;;13.70;87.10;;;;;;5073692;28;20698;-45
2023/05/05 01:01:28;;;;;;;12.02;7.80;;;13.70;87.30;;;;;;5061847;28;20037;-47
2023/05/05 01:04:14;;;;;;;9.68;7.10;;;13.60;87.60;;;;;;5091676;28;20028;-46
2023/05/05 01:07:25;;;;;;;11.30;8.52;;;13.70;88.00;;;;;;5093787;28;20024;-46
2023/05/05 01:10:28;;;;;;;9.13;7.30;;;13.60;88.50;;;;;;5092455;28;20447;-47
2023/05/05 01:13:27;;;;;;;11.00;7.30;;;13.70;88.90;;;;;;5092937;28;20024;-45
2023/05/05 01:16:32;;;;;;;10.80;7.25;;;13.70;89.00;;;;;;5067768;28;20021;-46
2023/05/05 01:19:42;;;;;;;7.95;7.10;;;13.70;89.30;;;;;;5052249;28;20451;-47
2023/05/05 01:22:43;;;;;;;9.30;7.60;;;13.80;89.80;;;;;;5067906;28;20025;-48
2023/05/05 01:26:06;;;;;;;11.05;7.50;;;13.70;90.10;;;;;;5052922;28;20516;-48
2023/05/05 01:29:08;;;;;;;13.27;8.38;;;13.70;90.50;;;;;;5061171;28;20029;-46
2023/05/05 01:31:59;;;;;;;9.55;8.48;;;13.70;90.90;;;;;;5072632;28;20039;-48
2023/05/05 01:34:56;;;;;;;12.43;8.25;;;13.60;90.90;;;;;;5073353;28;20392;-45
2023/05/05 01:37:50;;;;;;;11.60;7.95;;;13.60;90.90;;;;;;5072114;28;20078;-46
2023/05/05 01:40:42;;;;;;;9.88;8.38;;;13.50;91.00;;;;;;5072681;28;20027;-46
2023/05/05 01:43:31;;;;;;;10.15;7.30;;;13.50;91.20;;;;;;5063364;28;20120;-46
2023/05/05 01:46:20;;;;;;;10.55;7.97;;;13.50;91.50;;;;;;5052299;28;20030;-46
2023/05/05 01:49:08;;;;;;;11.20;7.95;;;13.60;91.70;;;;;;5052935;28;20036;-45
2023/05/05 01:51:55;;;;;;;10.43;8.30;;;13.50;91.80;;;;;;5052753;28;20028;-46
2023/05/05 01:54:43;;;;;;;12.50;8.30;;;13.40;91.80;;;;;;5052812;28;20449;-46
2023/05/05 01:57:31;;;;;;;9.02;7.68;;;13.40;92.00;;;;;;5069719;28;20037;-45
2023/05/05 02:00:18;;;;;;;10.07;8.32;;;13.40;92.10;;;;;;5071472;28;20029;-46
2023/05/05 02:03:07;;;;;;;11.25;7.90;;;13.40;92.20;;;;;;5072643;28;20029;-46
2023/05/05 02:05:54;;;;;;;11.68;7.63;;;13.30;92.20;;;;;;5085548;28;20029;-46
2023/05/05 02:08:40;;;;;;;11.98;8.48;;;13.30;92.40;;;;;;5071614;28;20040;-47
2023/05/05 02:11:28;;;;;;;9.60;8.48;;;13.30;92.70;;;;;;5071400;28;20032;-52
2023/05/05 02:14:15;;;;;;;12.88;9.50;;;13.30;92.90;;;;;;5072078;28;20025;-47
2023/05/05 02:17:03;;;;;;;10.57;9.00;;;13.30;93.10;;;;;;5072365;28;20032;-48
2023/05/05 02:19:51;;;;;;;10.82;8.93;;;13.30;93.10;;;;;;5072090;28;20032;-48
2023/05/05 02:22:37;;;;;;;12.90;9.07;;;13.20;93.20;;;;;;5071811;28;20108;-46
2023/05/05 02:25:31;;;;;;;11.70;9.27;;;13.00;93.00;;;;;;5053879;28;20033;-47
2023/05/05 02:28:41;;;;;;;9.85;8.50;;;12.90;92.90;;;;;;5052337;28;20067;-46
2023/05/05 02:31:29;;;;;;;12.50;9.85;;;12.80;93.10;;;;;;5052562;28;20076;-49
2023/05/05 02:34:25;;;;;;;16.98;9.65;;;12.80;93.30;;;;;;5052188;28;20151;-46
2023/05/05 02:37:18;;;;;;;11.48;9.52;;;12.80;93.40;;;;;;5051831;28;20033;-49
2023/05/05 02:40:07;;;;;;;13.23;9.50;;;12.80;93.60;;;;;;5052213;28;20036;-49
2023/05/05 02:42:57;;;;;;;12.50;10.75;;;12.70;93.70;;;;;;5050914;28;20025;-47
2023/05/05 02:45:44;;;;;;;14.85;10.52;;;12.70;93.60;;;;;;5052023;28;20029;-49
2023/05/05 02:48:30;;;;;;;13.90;9.70;;;12.60;93.70;;;;;;5052980;28;20037;-45
2023/05/05 02:51:16;;;;;;;13.93;10.80;;;12.60;93.80;;;;;;5071360;28;20516;-45
2023/05/05 02:54:04;;;;;;;15.02;10.60;;;12.50;93.90;;;;;;5072875;28;20021;-46
2023/05/05 02:56:50;;;;;;;10.90;9.65;;;12.40;94.40;;;;;;5071340;28;20103;-48
2023/05/05 03:00:05;;;;;;;13.60;10.50;;;12.40;94.40;;;;;;5072228;28;20467;-47
2023/05/05 03:03:16;;;;;;;15.93;10.82;;;12.50;94.40;;;;;;5070108;28;20457;-45
2023/05/05 03:06:19;;;;;;;12.48;10.38;;;12.50;94.60;;;;;;5051705;28;20029;-45
2023/05/05 03:09:10;;;;;;;12.40;10.77;;;12.50;94.90;;;;;;5051417;28;20029;-49
2023/05/05 03:12:02;;;;;;;12.85;9.50;;;12.50;94.90;;;;;;5050947;28;20056;-46
2023/05/05 03:14:51;;;;;;;13.68;10.00;;;12.50;95.10;;;;;;5052112;28;20037;-47
2023/05/05 03:17:39;;;;;;;12.05;10.00;;;12.50;95.30;;;;;;5060817;28;20024;-46
2023/05/05 03:20:25;;;;;;;14.80;10.10;;;12.50;95.50;;;;;;5071165;28;20131;-46
2023/05/05 03:23:17;;;;;;;17.08;10.32;;;12.50;95.50;;;;;;5071387;28;20033;-45
2023/05/05 03:26:03;;;;;;;13.73;10.35;;;12.50;95.60;;;;;;5070859;28;20449;-46
2023/05/05 03:28:49;;;;;;;11.88;10.38;;;12.50;95.70;;;;;;5069384;28;20083;-45
2023/05/05 03:31:35;;;;;;;12.63;9.82;;;12.50;95.80;;;;;;5069848;28;20067;-46
2023/05/05 03:34:21;;;;;;;12.95;10.35;;;12.50;95.90;;;;;;5069849;28;20024;-47
2023/05/05 03:37:07;;;;;;;12.40;10.00;;;12.50;96.00;;;;;;5070850;28;20017;-49
2023/05/05 03:39:53;;;;;;;11.25;10.05;;;12.50;96.10;;;;;;5070713;28;20405;-48
2023/05/05 03:42:39;;;;;;;12.40;10.05;;;12.50;96.20;;;;;;5071221;28;20059;-50
2023/05/05 03:45:25;;;;;;;13.55;10.85;;;12.40;96.50;;;;;;5060447;28;20044;-48
2023/05/05 03:48:11;;;;;;;55.33;35.55;;;12.40;96.70;;;;;;5050424;28;20503;-47
2023/05/05 03:50:57;;;;;;;82.32;51.00;;;12.40;96.90;;;;;;5051567;28;20474;-47
2023/05/05 03:53:43;;;;;;;59.33;36.30;;;12.50;97.00;;;;;;5052245;28;20044;-53
2023/05/05 03:56:29;;;;;;;26.65;20.00;;;12.50;97.10;;;;;;5051838;28;20036;-51
2023/05/05 03:59:16;;;;;;;18.38;13.88;;;12.40;97.10;;;;;;5051557;28;20025;-47
2023/05/05 04:02:02;;;;;;;15.70;11.50;;;12.40;97.40;;;;;;5052383;28;20396;-45
2023/05/05 04:04:47;;;;;;;18.52;11.23;;;12.40;97.60;;;;;;5052294;28;20052;-48
2023/05/05 04:07:33;;;;;;;16.17;11.20;;;12.40;97.40;;;;;;5053310;28;20029;-44
2023/05/05 04:10:20;;;;;;;16.65;11.30;;;12.30;97.40;;;;;;5074484;28;20513;-48
2023/05/05 04:13:07;;;;;;;21.08;12.23;;;12.40;97.60;;;;;;5054529;28;20033;-46
2023/05/05 04:15:53;;;;;;;13.75;11.18;;;12.40;97.70;;;;;;5054337;28;20057;-46
2023/05/05 04:18:39;;;;;;;15.35;11.13;;;12.50;97.90;;;;;;5069916;28;20536;-44
2023/05/05 04:21:25;;;;;;;26.83;16.98;;;12.50;97.90;;;;;;5074230;28;20454;-45
2023/05/05 04:24:11;;;;;;;26.58;17.98;;;12.60;97.90;;;;;;5074317;28;20543;-46
2023/05/05 04:26:57;;;;;;;19.67;14.70;;;12.60;98.00;;;;;;5074031;28;20448;-47
2023/05/05 04:29:43;;;;;;;14.88;11.95;;;12.70;98.00;;;;;;5069051;28;20032;-50
2023/05/05 04:32:29;;;;;;;13.85;10.90;;;12.70;98.00;;;;;;5053984;28;20108;-48
2023/05/05 04:35:15;;;;;;;16.33;11.80;;;12.70;98.00;;;;;;5055161;28;20025;-50
2023/05/05 04:38:00;;;;;;;15.15;11.60;;;12.60;98.20;;;;;;5054107;28;20508;-47
2023/05/05 04:40:46;;;;;;;13.52;10.90;;;12.60;98.40;;;;;;5054361;28;20036;-48
2023/05/05 04:43:32;;;;;;;14.07;11.23;;;12.60;98.20;;;;;;5054228;28;20068;-48
2023/05/05 04:46:18;;;;;;;13.10;11.77;;;12.60;98.30;;;;;;5072096;28;20029;-49
2023/05/05 04:49:04;;;;;;;12.00;10.60;;;12.60;98.10;;;;;;5074060;28;20032;-49
2023/05/05 04:51:50;;;;;;;18.50;11.52;;;12.70;97.90;;;;;;5073969;28;20036;-45
2023/05/05 04:54:36;;;;;;;13.68;11.50;;;12.70;97.80;;;;;;5074891;28;20028;-47
2023/05/05 04:57:22;;;;;;;18.20;12.10;;;12.70;97.80;;;;;;5074273;28;20493;-46
2023/05/05 05:00:08;;;;;;;16.00;11.82;;;12.70;97.80;;;;;;5073676;28;20037;-48
2023/05/05 05:02:54;;;;;;;15.05;11.18;;;12.80;97.80;;;;;;5053315;28;20504;-46
2023/05/05 05:05:40;;;;;;;18.55;12.02;;;12.70;97.40;;;;;;5052945;28;20037;-46
2023/05/05 05:08:26;;;;;;;17.75;13.13;;;12.80;96.90;;;;;;5052833;28;20061;-47
2023/05/05 05:11:12;;;;;;;15.45;12.25;;;12.70;96.40;;;;;;5056488;28;20025;-48
2023/05/05 05:13:58;;;;;;;15.07;11.40;;;12.70;96.40;;;;;;5059570;28;20497;-46
2023/05/05 05:16:44;;;;;;;14.07;11.32;;;12.70;96.20;;;;;;5072543;28;20028;-49
2023/05/05 05:19:30;;;;;;;18.05;13.50;;;12.70;95.90;;;;;;5059109;28;20032;-46
2023/05/05 05:22:16;;;;;;;17.17;11.20;;;12.80;95.80;;;;;;5085966;28;20024;-51
2023/05/05 05:25:02;;;;;;;14.50;11.75;;;12.90;95.70;;;;;;5085633;28;20043;-46
2023/05/05 05:27:48;;;;;;;14.98;11.93;;;13.00;95.30;;;;;;5073959;28;20036;-48
2023/05/05 05:30:36;;;;;;;14.85;10.63;;;13.00;95.20;;;;;;5073134;28;20029;-49
2023/05/05 05:33:22;;;;;;;12.35;11.00;;;13.00;95.20;;;;;;5074560;28;20451;-48
2023/05/05 05:36:08;;;;;;;13.52;10.68;;;13.00;95.10;;;;;;5072329;28;20439;-47
2023/05/05 05:38:54;;;;;;;14.73;10.70;;;13.10;94.90;;;;;;5070724;28;20025;-47
2023/05/05 05:41:40;;;;;;;13.93;10.48;;;13.10;94.70;;;;;;5053428;28;20040;-50
2023/05/05 05:44:26;;;;;;;12.50;9.73;;;13.10;94.50;;;;;;5053552;28;20394;-46
2023/05/05 05:47:12;;;;;;;13.18;9.93;;;13.10;94.60;;;;;;5052590;28;20032;-48
2023/05/05 05:49:58;;;;;;;14.90;10.40;;;13.10;94.60;;;;;;5052630;28;20062;-47
2023/05/05 05:52:44;;;;;;;13.32;10.55;;;13.10;94.70;;;;;;5087676;28;20032;-49
2023/05/05 05:55:30;;;;;;;14.68;10.02;;;13.30;94.60;;;;;;5093300;28;20030;-46
2023/05/05 05:58:17;;;;;;;25.80;12.68;;;13.40;94.60;;;;;;5084394;28;20087;-47
2023/05/05 06:01:04;;;;;;;21.02;12.13;;;13.40;94.50;;;;;;5052272;28;20032;-54
2023/05/05 06:03:49;;;;;;;19.48;11.98;;;13.50;94.60;;;;;;5052202;28;20029;-49
2023/05/05 06:06:35;;;;;;;14.65;10.90;;;13.50;94.70;;;;;;5052947;28;20047;-49
2023/05/05 06:09:21;;;;;;;12.77;10.00;;;13.50;94.50;;;;;;5051567;28;20033;-46
2023/05/05 06:12:07;;;;;;;13.85;10.40;;;13.60;94.50;;;;;;5051278;28;20033;-49
2023/05/05 06:14:53;;;;;;;11.73;9.68;;;13.80;94.40;;;;;;5052792;28;20166;-44
2023/05/05 06:17:39;;;;;;;12.10;10.10;;;13.90;94.20;;;;;;5051742;28;20025;-47
2023/05/05 06:20:25;;;;;;;11.70;10.13;;;13.90;94.10;;;;;;5053414;28;20033;-49
2023/05/05 06:23:11;;;;;;;16.73;10.50;;;14.10;94.20;;;;;;5052607;28;20061;-47
2023/05/05 06:25:57;;;;;;;13.95;10.88;;;14.20;93.90;;;;;;5052033;28;20037;-51
2023/05/05 06:28:43;;;;;;;11.75;10.38;;;14.20;94.00;;;;;;5050648;28;20029;-46
2023/05/05 06:31:29;;;;;;;19.60;13.98;;;14.20;94.00;;;;;;5063816;28;20599;-50
2023/05/05 06:34:15;;;;;;;18.73;11.40;;;14.30;94.00;;;;;;5071269;28;20683;-51
2023/05/05 06:37:01;;;;;;;17.85;10.13;;;14.50;94.00;;;;;;5071167;28;20031;-46
2023/05/05 06:39:47;;;;;;;21.83;10.93;;;14.60;93.80;;;;;;5071730;28;20115;-45
2023/05/05 06:42:34;;;;;;;12.38;9.38;;;14.80;93.70;;;;;;5073226;28;20037;-46
2023/05/05 06:45:20;;;;;;;11.40;9.32;;;14.90;93.60;;;;;;5071454;28;20029;-50
2023/05/05 06:48:06;;;;;;;20.92;9.88;;;14.90;93.50;;;;;;5071302;28;20039;-46
2023/05/05 06:50:52;;;;;;;18.27;10.20;;;15.10;93.50;;;;;;5072570;28;20127;-48
2023/05/05 06:53:38;;;;;;;15.20;10.07;;;15.20;93.40;;;;;;5071828;28;20025;-49
2023/05/05 06:56:24;;;;;;;15.02;10.20;;;15.40;93.20;;;;;;5072168;28;20558;-45
2023/05/05 06:59:10;;;;;;;22.33;15.48;;;15.40;92.90;;;;;;5069611;28;20090;-48
2023/05/05 07:01:56;;;;;;;16.60;10.60;;;15.50;92.80;;;;;;5072224;28;20039;-48
2023/05/05 07:04:43;;;;;;;17.98;10.68;;;15.60;92.70;;;;;;5071512;28;20025;-45
2023/05/05 07:07:30;;;;;;;14.60;10.32;;;15.80;92.40;;;;;;5070594;28;20029;-46
2023/05/05 07:10:16;;;;;;;13.65;10.32;;;15.90;92.20;;;;;;5070905;28;20025;-50
2023/05/05 07:13:02;;;;;;;12.38;8.93;;;16.00;91.80;;;;;;5071058;28;20067;-47
2023/05/05 07:15:48;;;;;;;13.13;8.38;;;16.00;91.80;;;;;;5065397;28;20025;-45
2023/05/05 07:18:34;;;;;;;12.10;8.38;;;16.10;91.80;;;;;;5036300;28;20481;-47
2023/05/05 07:21:20;;;;;;;9.80;7.90;;;16.20;91.70;;;;;;5050422;28;20029;-46
2023/05/05 07:24:06;;;;;;;9.50;7.65;;;16.20;91.80;;;;;;5052305;28;20104;-47
2023/05/05 07:26:52;;;;;;;11.25;8.23;;;16.30;91.70;;;;;;5049936;28;20033;-45
2023/05/05 07:29:38;;;;;;;14.55;7.90;;;16.30;91.60;;;;;;5051254;28;20055;-46
2023/05/05 07:32:25;;;;;;;52.67;30.85;;;16.40;91.50;;;;;;5051362;28;20108;-46
2023/05/05 07:35:11;;;;;;;19.95;12.52;;;16.50;91.40;;;;;;5051869;28;20033;-46
2023/05/05 07:37:56;;;;;;;14.23;10.52;;;16.60;91.20;;;;;;5051689;28;20033;-46
2023/05/05 07:40:42;;;;;;;14.65;8.13;;;16.70;91.20;;;;;;5052662;28;20025;-48
2023/05/05 07:43:28;;;;;;;14.13;7.50;;;16.70;90.70;;;;;;5055502;28;20025;-48
2023/05/05 07:46:14;;;;;;;15.32;7.90;;;16.80;90.80;;;;;;5058701;28;20051;-48
2023/05/05 07:49:03;;;;;;;11.82;7.53;;;17.00;90.90;;;;;;5074150;28;20037;-52
2023/05/05 07:51:51;;;;;;;11.50;7.55;;;17.10;90.60;;;;;;5075674;28;20397;-47
2023/05/05 07:54:37;;;;;;;11.95;7.85;;;17.20;90.30;;;;;;5049437;28;20025;-49
2023/05/05 07:57:23;;;;;;;13.50;8.10;;;17.20;90.10;;;;;;5054859;28;20032;-49
2023/05/05 08:00:10;;;;;;;10.95;6.93;;;17.20;89.70;;;;;;5054557;28;20117;-47
2023/05/05 08:02:56;;;;;;;8.38;6.88;;;17.30;89.40;;;;;;5054084;28;20036;-47
2023/05/05 08:05:42;;;;;;;11.05;6.72;;;17.30;88.90;;;;;;5054547;28;20505;-47
2023/05/05 08:08:28;;;;;;;12.05;6.88;;;17.40;89.10;;;;;;5054089;28;20138;-48
2023/05/05 08:11:16;;;;;;;11.70;6.82;;;17.50;89.10;;;;;;5054299;28;20029;-49
2023/05/05 08:14:02;;;;;;;12.65;7.30;;;17.70;88.90;;;;;;5054215;28;20103;-50
2023/05/05 08:16:48;;;;;;;9.88;6.25;;;17.90;88.10;;;;;;5054620;28;20370;-48
2023/05/05 08:19:34;;;;;;;15.07;7.65;;;18.00;87.00;;;;;;5061656;28;20516;-50
2023/05/05 08:22:21;;;;;;;10.63;6.82;;;18.20;86.60;;;;;;5060330;28;20040;-50
2023/05/05 08:25:07;;;;;;;14.65;6.72;;;18.10;86.40;;;;;;5075235;28;20036;-46
2023/05/05 08:27:53;;;;;;;10.85;6.40;;;18.10;86.10;;;;;;5073493;28;20032;-47
2023/05/05 08:30:39;;;;;;;14.50;6.82;;;18.30;86.80;;;;;;5056495;28;20025;-49
2023/05/05 08:33:25;;;;;;;9.05;6.93;;;18.60;85.30;;;;;;5086508;28;20058;-46
2023/05/05 08:36:12;;;;;;;9.75;6.30;;;18.60;86.20;;;;;;5092055;28;20052;-48
2023/05/05 08:38:58;;;;;;;10.18;5.97;;;18.80;86.60;;;;;;5074107;28;20028;-48
2023/05/05 08:41:44;;;;;;;10.23;5.68;;;18.90;84.40;;;;;;5073685;28;20033;-47
2023/05/05 08:44:31;;;;;;;9.60;6.15;;;19.10;83.90;;;;;;5074693;28;20036;-46
2023/05/05 08:47:17;;;;;;;10.48;6.45;;;19.20;83.60;;;;;;5074397;28;20078;-45
2023/05/05 08:50:04;;;;;;;9.48;6.20;;;19.30;83.00;;;;;;5073615;28;20526;-45
2023/05/05 08:52:56;;;;;;;13.68;9.18;;;19.30;83.50;;;;;;5073779;28;20036;-48
2023/05/05 08:56:02;;;;;;;10.80;6.88;;;19.50;82.30;;;;;;5074528;28;20025;-48
2023/05/05 08:58:50;;;;;;;10.48;6.53;;;19.70;82.50;;;;;;5075167;28;20064;-46
2023/05/05 09:01:36;;;;;;;11.43;6.18;;;19.80;82.20;;;;;;5062619;28;20029;-46
2023/05/05 09:04:22;;;;;;;9.32;5.80;;;19.90;82.10;;;;;;5054262;28;20033;-52
2023/05/05 09:07:08;;;;;;;7.57;5.78;;;20.20;81.30;;;;;;5053433;28;20035;-46
2023/05/05 09:09:54;;;;;;;9.32;6.18;;;20.40;81.30;;;;;;5061371;28;20036;-50
2023/05/05 09:12:41;;;;;;;9.93;5.75;;;20.40;81.00;;;;;;5066023;28;20043;-48
2023/05/05 09:15:27;;;;;;;9.65;6.18;;;20.60;80.10;;;;;;5067972;28;20024;-51
2023/05/05 09:18:13;;;;;;;9.73;5.88;;;20.70;79.60;;;;;;5064455;28;20518;-47
2023/05/05 09:20:59;;;;;;;9.75;6.10;;;20.70;78.40;;;;;;5073765;28;20086;-47
2023/05/05 09:24:10;;;;;;;8.73;5.80;;;20.70;77.80;;;;;;5074602;28;20381;-47
2023/05/05 09:26:56;;;;;;;11.43;5.70;;;20.80;78.20;;;;;;5053472;28;20571;-49
2023/05/05 09:29:47;;;;;;;8.77;6.07;;;20.80;78.70;;;;;;5039948;28;20112;-47
2023/05/05 09:32:49;;;;;;;7.82;6.00;;;21.00;78.60;;;;;;5073129;28;20459;-48
2023/05/05 09:35:59;;;;;;;13.48;5.60;;;21.10;77.60;;;;;;5053214;28;20052;-50
2023/05/05 09:39:05;;;;;;;7.50;5.53;;;21.10;77.20;;;;;;5053091;28;20518;-48
2023/05/05 09:41:51;;;;;;;8.05;5.72;;;21.20;76.70;;;;;;5069413;28;20487;-47
2023/05/05 09:44:37;;;;;;;9.38;5.68;;;21.10;76.00;;;;;;5058290;28;20171;-47
2023/05/05 09:47:41;;;;;;;7.28;5.32;;;21.00;76.00;;;;;;5065578;28;20398;-50
2023/05/05 09:50:29;;;;;;;9.32;5.47;;;20.90;75.90;;;;;;5073190;28;20048;-48
2023/05/05 09:53:15;;;;;;;9.75;5.90;;;20.80;75.90;;;;;;5072540;28;20115;-45
2023/05/05 09:56:01;;;;;;;8.73;5.55;;;20.80;76.90;;;;;;5085046;28;20113;-46
2023/05/05 09:58:46;;;;;;;9.32;5.80;;;20.80;77.90;;;;;;5089660;28;20399;-46
2023/05/05 10:01:32;;;;;;;9.15;6.03;;;20.90;76.40;;;;;;5053461;28;20412;-46
2023/05/05 10:04:23;;;;;;;8.38;5.78;;;21.20;76.30;;;;;;5051773;28;20496;-48
2023/05/05 10:07:22;;;;;;;8.07;6.00;;;21.40;75.60;;;;;;5052882;28;20028;-47
2023/05/05 10:10:15;;;;;;;10.48;5.95;;;21.50;75.70;;;;;;5060940;28;20028;-48
2023/05/05 10:13:01;;;;;;;9.23;6.07;;;21.70;75.60;;;;;;5076651;28;20032;-49
2023/05/05 10:15:53;;;;;;;10.38;6.13;;;21.80;74.90;;;;;;5092582;28;20549;-51
2023/05/05 10:18:42;;;;;;;10.95;6.10;;;21.80;75.40;;;;;;5092269;28;20477;-51
2023/05/05 10:21:32;;;;;;;10.48;5.72;;;21.80;74.30;;;;;;5092622;28;20059;-50
2023/05/05 10:24:35;;;;;;;10.05;5.97;;;21.80;74.60;;;;;;5092375;28;20027;-55
2023/05/05 10:27:23;;;;;;;11.65;6.38;;;21.80;73.70;;;;;;5091532;28;20020;-50
2023/05/05 10:30:28;;;;;;;13.88;6.15;;;21.90;74.80;;;;;;5092281;28;20581;-48
2023/05/05 10:33:18;;;;;;;10.05;5.20;;;22.10;73.70;;;;;;5081787;28;20021;-46
2023/05/05 10:36:06;;;;;;;11.70;5.68;;;22.20;72.10;;;;;;5071508;28;20392;-47
2023/05/05 10:38:56;;;;;;;6.90;5.63;;;22.30;72.60;;;;;;5070043;28;20103;-46
2023/05/05 10:41:43;;;;;;;8.40;5.70;;;22.50;72.50;;;;;;5072550;28;20139;-45
2023/05/05 10:44:31;;;;;;;7.88;5.43;;;22.50;71.00;;;;;;5071714;28;20024;-47
2023/05/05 10:47:19;;;;;;;8.65;5.53;;;22.40;71.40;;;;;;5063029;28;20060;-56
2023/05/05 10:50:36;;;;;;;10.90;5.70;;;22.50;71.10;;;;;;5070439;28;20035;-49
2023/05/05 10:53:30;;;;;;;6.40;5.20;;;22.50;69.70;;;;;;5051410;28;20112;-45
2023/05/05 10:56:26;;;;;;;9.55;5.28;;;22.50;70.30;;;;;;5054244;28;20025;-49
2023/05/05 10:59:37;;;;;;;8.05;5.40;;;22.60;71.90;;;;;;5070911;28;20025;-49
2023/05/05 11:02:30;;;;;;;12.95;5.32;;;22.70;73.30;;;;;;5070758;28;20024;-48
2023/05/05 11:05:16;;;;;;;8.05;5.53;;;22.80;72.30;;;;;;5070781;28;20022;-46
2023/05/05 11:08:25;;;;;;;8.93;5.55;;;22.80;72.30;;;;;;5071960;28;20085;-47
2023/05/05 11:11:12;;;;;;;7.88;5.50;;;22.80;72.20;;;;;;5064130;28;20517;-50
2023/05/05 11:14:20;;;;;;;10.65;5.43;;;22.70;72.20;;;;;;5060654;28;20429;-50
2023/05/05 11:17:45;;;;;;;10.60;5.80;;;22.60;72.00;;;;;;5070608;28;20031;-46
2023/05/05 11:20:40;;;;;;;10.00;5.28;;;22.50;71.40;;;;;;5050799;28;20057;-47
2023/05/05 11:23:27;;;;;;;6.47;4.85;;;22.40;71.20;;;;;;5051528;28;20059;-49
2023/05/05 11:26:14;;;;;;;8.30;4.95;;;22.50;71.30;;;;;;5050899;28;20040;-49
2023/05/05 11:29:05;;;;;;;9.13;5.05;;;22.50;70.10;;;;;;5050266;28;20036;-49
2023/05/05 11:32:10;;;;;;;7.75;4.65;;;22.60;69.80;;;;;;5066210;28;20565;-46
2023/05/05 11:34:56;;;;;;;10.23;4.97;;;22.70;69.70;;;;;;5051091;28;20021;-50
2023/05/05 11:37:42;;;;;;;13.43;5.45;;;22.80;69.50;;;;;;5053586;28;20099;-51
2023/05/05 11:40:33;;;;;;;10.57;5.32;;;22.70;70.30;;;;;;5071344;28;20060;-48
2023/05/05 11:43:19;;;;;;;6.65;5.13;;;22.40;70.80;;;;;;5071647;28;20059;-47
2023/05/05 11:46:13;;;;;;;9.43;5.47;;;22.30;69.90;;;;;;5070913;28;20553;-46
2023/05/05 11:48:59;;;;;;;8.55;4.57;;;22.40;69.20;;;;;;5060828;28;20094;-48
2023/05/05 11:52:04;;;;;;;9.18;5.35;;;22.40;69.00;;;;;;5071752;28;20064;-50
2023/05/05 11:54:50;;;;;;;8.48;5.00;;;22.40;70.30;;;;;;5071718;28;20021;-47
2023/05/05 11:57:36;;;;;;;8.30;5.15;;;22.50;70.90;;;;;;5061619;28;20022;-47
2023/05/05 12:00:32;;;;;;;7.18;5.03;;;22.50;70.90;;;;;;5050609;28;20112;-48
2023/05/05 12:03:18;;;;;;;7.82;5.55;;;22.50;71.10;;;;;;5059838;28;20078;-48
2023/05/05 12:06:06;;;;;;;10.00;5.15;;;22.60;71.10;;;;;;5069704;28;20048;-48
2023/05/05 12:08:52;;;;;;;8.98;5.78;;;22.60;71.30;;;;;;5070326;28;20082;-52
2023/05/05 12:11:50;;;;;;;10.50;5.88;;;22.60;71.70;;;;;;5071168;28;20021;-45
2023/05/05 12:14:50;;;;;;;12.95;5.78;;;22.50;71.80;;;;;;5071821;28;20016;-45
2023/05/05 12:17:38;;;;;;;6.97;5.00;;;22.50;71.10;;;;;;5071089;28;20021;-51
2023/05/05 12:20:32;;;;;;;8.45;5.65;;;22.60;71.70;;;;;;5069318;28;20047;-46
2023/05/05 12:23:18;;;;;;;8.38;5.47;;;22.80;71.70;;;;;;5071277;28;20066;-45
2023/05/05 12:26:04;;;;;;;7.88;5.65;;;22.90;71.40;;;;;;5071108;28;20047;-48
2023/05/05 12:28:50;;;;;;;7.70;4.88;;;22.80;70.80;;;;;;5074998;28;20036;-52
2023/05/05 12:31:40;;;;;;;9.57;5.28;;;22.90;71.60;;;;;;5073563;28;20056;-49
2023/05/05 12:34:26;;;;;;;7.63;5.45;;;23.10;71.10;;;;;;5053923;28;20040;-46
2023/05/05 12:37:15;;;;;;;6.55;5.35;;;23.20;71.10;;;;;;5052718;28;20025;-53
2023/05/05 12:40:01;;;;;;;9.38;5.40;;;23.20;69.50;;;;;;5054638;28;20057;-47
2023/05/05 12:42:47;;;;;;;9.75;5.93;;;23.00;70.10;;;;;;5053538;28;20497;-47
2023/05/05 12:45:33;;;;;;;9.15;5.57;;;23.10;70.40;;;;;;5054174;28;20029;-49
2023/05/05 12:48:22;;;;;;;6.45;5.32;;;23.40;69.90;;;;;;5038161;28;20033;-49
2023/05/05 12:51:16;;;;;;;9.95;5.22;;;23.40;69.30;;;;;;5052152;28;20123;-45
2023/05/05 12:54:05;;;;;;;10.80;5.72;;;23.40;69.80;;;;;;5053851;28;20021;-48
2023/05/05 12:56:51;;;;;;;9.52;5.50;;;23.60;69.50;;;;;;5054138;28;20468;-50
2023/05/05 12:59:37;;;;;;;7.90;5.13;;;23.60;69.10;;;;;;5058408;28;20033;-50
2023/05/05 13:02:32;;;;;;;7.75;4.68;;;23.60;69.40;;;;;;5073519;28;20500;-46
2023/05/05 13:05:32;;;;;;;7.05;4.97;;;23.80;69.10;;;;;;5092680;28;20028;-48
2023/05/05 13:08:18;;;;;;;11.35;8.25;;;24.00;69.10;;;;;;5078786;28;20504;-49
2023/05/05 13:11:04;;;;;;;14.70;10.98;;;23.80;68.30;;;;;;5093554;28;20488;-49
2023/05/05 13:13:50;;;;;;;9.82;5.88;;;24.00;69.00;;;;;;5105371;28;20051;-47
2023/05/05 13:16:36;;;;;;;16.80;10.95;;;24.30;69.00;;;;;;5087838;28;20035;-48
2023/05/05 13:19:25;;;;;;;9.48;5.40;;;24.50;68.70;;;;;;5054340;28;20505;-50
2023/05/05 13:22:12;;;;;;;5.47;4.72;;;24.30;67.80;;;;;;5063146;28;20408;-46
2023/05/05 13:24:58;;;;;;;8.75;4.90;;;24.10;68.30;;;;;;5070572;28;20068;-48
2023/05/05 13:27:43;;;;;;;7.05;5.07;;;24.00;68.60;;;;;;5072455;28;20691;-48
2023/05/05 13:30:29;;;;;;;12.50;5.68;;;24.00;68.70;;;;;;5057219;28;20037;-47
2023/05/05 13:33:15;;;;;;;7.75;5.38;;;23.90;67.60;;;;;;5072933;28;20024;-48
2023/05/05 13:36:02;;;;;;;8.90;5.32;;;24.00;68.00;;;;;;5074225;28;20021;-50
2023/05/05 13:38:48;;;;;;;13.68;5.93;;;24.10;68.00;;;;;;5074083;28;20029;-48
2023/05/05 13:41:34;;;;;;;9.77;4.95;;;24.10;67.80;;;;;;5076032;28;20123;-46
2023/05/05 13:44:20;;;;;;;6.90;4.93;;;24.10;67.40;;;;;;5080961;28;20017;-50
2023/05/05 13:47:07;;;;;;;10.98;5.20;;;23.80;66.90;;;;;;5092096;28;20025;-48
2023/05/05 13:49:53;;;;;;;12.05;7.63;;;23.60;67.30;;;;;;5092140;28;20028;-50
2023/05/05 13:52:39;;;;;;;11.35;5.43;;;23.50;67.40;;;;;;5078151;28;20032;-49
2023/05/05 13:55:27;;;;;;;7.55;4.72;;;23.30;67.60;;;;;;5053251;28;20033;-47
2023/05/05 13:58:13;;;;;;;6.25;4.82;;;23.40;68.00;;;;;;5065619;28;20064;-47
2023/05/05 14:00:59;;;;;;;7.82;4.82;;;23.60;68.30;;;;;;5072610;28;20048;-47
2023/05/05 14:03:45;;;;;;;6.82;5.15;;;23.60;67.90;;;;;;5086671;28;20055;-47
2023/05/05 14:06:32;;;;;;;6.13;4.57;;;23.50;67.30;;;;;;5072212;28;20035;-47
2023/05/05 14:09:18;;;;;;;8.23;4.70;;;23.60;67.60;;;;;;5083848;28;20021;-49
2023/05/05 14:12:05;;;;;;;11.90;4.93;;;23.60;67.10;;;;;;5076185;28;20017;-51
2023/05/05 14:14:50;;;;;;;7.40;4.65;;;23.40;67.00;;;;;;5077447;28;20034;-47
2023/05/05 14:17:36;;;;;;;6.72;4.65;;;23.50;67.20;;;;;;5090894;28;20032;-46
2023/05/05 14:20:22;;;;;;;7.20;4.53;;;23.60;67.20;;;;;;5090880;28;20465;-49
2023/05/05 14:23:08;;;;;;;9.10;4.85;;;23.70;67.50;;;;;;5091325;28;20028;-49
2023/05/05 14:25:54;;;;;;;5.97;4.28;;;23.60;66.40;;;;;;5076845;28;20042;-47
2023/05/05 14:28:41;;;;;;;5.40;4.50;;;23.40;65.40;;;;;;5092250;28;20165;-46